sensor_id;sensor_type;location;lat;lon;timestamp;pressure;altitude;pressure_sealevel;temperature;humidity
33185;BME280;19550;42.872;25.494;2023-02-15T00:01:05;97570.78;;;1.12;100.00
33185;BME280;19550;42.872;25.494;2023-02-15T00:03:32;97577.31;;;1.11;100.00
33185;BME280;19550;42.872;25.494;2023-02-15T00:05:58;97580.97;;;1.05;100.00
33185;BME280;19550;42.872;25.494;2023-02-15T00:08:25;97576.91;;;1.08;100.00
33185;BME280;19550;42.872;25.494;2023-02-15T00:10:52;97569.63;;;0.90;100.00
33185;BME280;19550;42.872;25.494;2023-02-15T00:13:19;97572.13;;;0.92;100.00
33185;BME280;19550;42.872;25.494;2023-02-15T00:15:46;97571.28;;;0.91;100.00
33185;BME280;19550;42.872;25.494;2023-02-15T00:18:15;97574.84;;;0.92;100.00
33185;BME280;19550;42.872;25.494;2023-02-15T00:20:42;97565.00;;;0.91;100.00
33185;BME280;19550;42.872;25.494;2023-02-15T00:23:09;97569.63;;;0.90;100.00
33185;BME280;19550;42.872;25.494;2023-02-15T00:25:35;97567.94;;;0.89;100.00
33185;BME280;19550;42.872;25.494;2023-02-15T00:28:02;97565.63;;;1.04;100.00
33185;BME280;19550;42.872;25.494;2023-02-15T00:30:31;97567.03;;;0.95;100.00
33185;BME280;19550;42.872;25.494;2023-02-15T00:32:58;97570.72;;;1.01;100.00
33185;BME280;19550;42.872;25.494;2023-02-15T00:35:26;97566.50;;;0.87;100.00
33185;BME280;19550;42.872;25.494;2023-02-15T00:37:53;97562.47;;;0.89;100.00
33185;BME280;19550;42.872;25.494;2023-02-15T00:40:20;97570.53;;;0.84;100.00
33185;BME280;19550;42.872;25.494;2023-02-15T00:42:47;97549.75;;;0.83;100.00
33185;BME280;19550;42.872;25.494;2023-02-15T00:45:13;97564.19;;;0.72;100.00
33185;BME280;19550;42.872;25.494;2023-02-15T00:47:40;97564.50;;;0.64;100.00
33185;BME280;19550;42.872;25.494;2023-02-15T00:50:08;97563.06;;;0.61;100.00
33185;BME280;19550;42.872;25.494;2023-02-15T00:52:36;97561.78;;;0.64;100.00
33185;BME280;19550;42.872;25.494;2023-02-15T00:55:03;97562.47;;;0.59;100.00
33185;BME280;19550;42.872;25.494;2023-02-15T00:57:30;97566.41;;;0.45;100.00
33185;BME280;19550;42.872;25.494;2023-02-15T00:59:57;97558.47;;;0.44;100.00
33185;BME280;19550;42.872;25.494;2023-02-15T01:02:24;97551.34;;;0.43;100.00
33185;BME280;19550;42.872;25.494;2023-02-15T01:04:50;97557.31;;;0.51;100.00
33185;BME280;19550;42.872;25.494;2023-02-15T01:07:18;97555.81;;;0.37;100.00
33185;BME280;19550;42.872;25.494;2023-02-15T01:09:46;97562.72;;;0.39;100.00
33185;BME280;19550;42.872;25.494;2023-02-15T01:12:13;97555.19;;;0.35;100.00
33185;BME280;19550;42.872;25.494;2023-02-15T01:14:40;97559.50;;;0.43;100.00
33185;BME280;19550;42.872;25.494;2023-02-15T01:17:06;97566.63;;;0.44;100.00
33185;BME280;19550;42.872;25.494;2023-02-15T01:19:33;97562.03;;;0.44;100.00
33185;BME280;19550;42.872;25.494;2023-02-15T01:22:00;97560.56;;;0.42;100.00
33185;BME280;19550;42.872;25.494;2023-02-15T01:24:27;97556.72;;;0.49;100.00
33185;BME280;19550;42.872;25.494;2023-02-15T01:26:55;97557.00;;;0.41;100.00
33185;BME280;19550;42.872;25.494;2023-02-15T01:29:22;97552.88;;;0.38;100.00
33185;BME280;19550;42.872;25.494;2023-02-15T01:31:49;97561.63;;;0.40;100.00
33185;BME280;19550;42.872;25.494;2023-02-15T01:34:16;97548.47;;;0.37;100.00
33185;BME280;19550;42.872;25.494;2023-02-15T01:36:42;97553.16;;;0.49;100.00
33185;BME280;19550;42.872;25.494;2023-02-15T01:39:09;97552.16;;;0.43;100.00
33185;BME280;19550;42.872;25.494;2023-02-15T01:41:36;97554.13;;;0.36;100.00
33185;BME280;19550;42.872;25.494;2023-02-15T01:47:07;97547.06;;;0.47;100.00
33185;BME280;19550;42.872;25.494;2023-02-15T01:49:35;97539.06;;;0.52;100.00
33185;BME280;19550;42.872;25.494;2023-02-15T01:52:03;97543.28;;;0.48;100.00
33185;BME280;19550;42.872;25.494;2023-02-15T01:54:32;97539.34;;;0.62;100.00
33185;BME280;19550;42.872;25.494;2023-02-15T01:57:03;97545.31;;;0.70;100.00
33185;BME280;19550;42.872;25.494;2023-02-15T01:59:30;97545.00;;;0.78;100.00
33185;BME280;19550;42.872;25.494;2023-02-15T02:01:59;97551.91;;;0.63;100.00
33185;BME280;19550;42.872;25.494;2023-02-15T02:04:32;97546.84;;;0.66;100.00
33185;BME280;19550;42.872;25.494;2023-02-15T02:07:02;97535.59;;;0.74;100.00
33185;BME280;19550;42.872;25.494;2023-02-15T02:09:30;97545.63;;;0.62;100.00
33185;BME280;19550;42.872;25.494;2023-02-15T02:11:57;97542.69;;;0.64;100.00
33185;BME280;19550;42.872;25.494;2023-02-15T02:14:24;97545.50;;;0.57;100.00
33185;BME280;19550;42.872;25.494;2023-02-15T02:16:57;97547.25;;;0.52;100.00
33185;BME280;19550;42.872;25.494;2023-02-15T02:22:53;97548.09;;;0.52;100.00
33185;BME280;19550;42.872;25.494;2023-02-15T02:25:52;97549.22;;;0.45;100.00
33185;BME280;19550;42.872;25.494;2023-02-15T02:28:54;97541.06;;;0.26;100.00
33185;BME280;19550;42.872;25.494;2023-02-15T02:32:03;97548.75;;;0.29;100.00
33185;BME280;19550;42.872;25.494;2023-02-15T02:34:39;97548.31;;;0.32;100.00
33185;BME280;19550;42.872;25.494;2023-02-15T02:37:17;97559.53;;;0.24;100.00
33185;BME280;19550;42.872;25.494;2023-02-15T02:39:49;97550.28;;;0.25;100.00
33185;BME280;19550;42.872;25.494;2023-02-15T02:42:25;97548.53;;;0.31;100.00
33185;BME280;19550;42.872;25.494;2023-02-15T02:45:00;97552.09;;;0.31;100.00
33185;BME280;19550;42.872;25.494;2023-02-15T02:47:32;97560.72;;;0.28;100.00
33185;BME280;19550;42.872;25.494;2023-02-15T02:50:08;97554.81;;;0.31;100.00
33185;BME280;19550;42.872;25.494;2023-02-15T02:52:39;97546.19;;;0.34;100.00
33185;BME280;19550;42.872;25.494;2023-02-15T02:55:10;97556.56;;;0.26;100.00
33185;BME280;19550;42.872;25.494;2023-02-15T02:57:45;97555.97;;;0.24;100.00
33185;BME280;19550;42.872;25.494;2023-02-15T03:00:14;97553.66;;;0.21;100.00
33185;BME280;19550;42.872;25.494;2023-02-15T03:02:44;97554.22;;;0.29;100.00
33185;BME280;19550;42.872;25.494;2023-02-15T03:05:19;97548.53;;;0.13;100.00
33185;BME280;19550;42.872;25.494;2023-02-15T03:07:49;97547.25;;;0.15;100.00
33185;BME280;19550;42.872;25.494;2023-02-15T03:10:18;97546.03;;;0.29;100.00
33185;BME280;19550;42.872;25.494;2023-02-15T03:12:47;97548.53;;;0.31;100.00
33185;BME280;19550;42.872;25.494;2023-02-15T03:15:17;97550.13;;;0.57;100.00
33185;BME280;19550;42.872;25.494;2023-02-15T03:17:47;97565.44;;;0.39;100.00
33185;BME280;19550;42.872;25.494;2023-02-15T03:20:21;97554.19;;;0.48;100.00
33185;BME280;19550;42.872;25.494;2023-02-15T03:22:54;97562.09;;;0.37;100.00
33185;BME280;19550;42.872;25.494;2023-02-15T03:25:24;97569.44;;;0.37;100.00
33185;BME280;19550;42.872;25.494;2023-02-15T03:27:52;97578.00;;;0.40;100.00
33185;BME280;19550;42.872;25.494;2023-02-15T03:30:22;97568.59;;;0.36;100.00
33185;BME280;19550;42.872;25.494;2023-02-15T03:32:50;97586.34;;;0.46;100.00
33185;BME280;19550;42.872;25.494;2023-02-15T03:35:22;97582.38;;;0.42;100.00
33185;BME280;19550;42.872;25.494;2023-02-15T03:37:52;97584.13;;;0.36;100.00
33185;BME280;19550;42.872;25.494;2023-02-15T03:40:25;97584.13;;;0.36;100.00
33185;BME280;19550;42.872;25.494;2023-02-15T03:43:15;97587.09;;;0.34;100.00
33185;BME280;19550;42.872;25.494;2023-02-15T03:45:46;97590.03;;;0.15;100.00
33185;BME280;19550;42.872;25.494;2023-02-15T03:48:24;97580.78;;;0.16;100.00
33185;BME280;19550;42.872;25.494;2023-02-15T03:50:54;97590.72;;;0.10;100.00
33185;BME280;19550;42.872;25.494;2023-02-15T03:53:42;97594.63;;;0.14;100.00
33185;BME280;19550;42.872;25.494;2023-02-15T03:56:09;97591.13;;;0.07;100.00
33185;BME280;19550;42.872;25.494;2023-02-15T03:58:36;97597.06;;;0.04;100.00
33185;BME280;19550;42.872;25.494;2023-02-15T04:01:26;97603.41;;;-0.02;100.00
33185;BME280;19550;42.872;25.494;2023-02-15T04:04:18;97604.69;;;-0.05;100.00
33185;BME280;19550;42.872;25.494;2023-02-15T04:06:47;97608.69;;;-0.07;100.00
33185;BME280;19550;42.872;25.494;2023-02-15T04:09:14;97607.03;;;-0.08;100.00
33185;BME280;19550;42.872;25.494;2023-02-15T04:11:59;97618.38;;;-0.11;100.00
33185;BME280;19550;42.872;25.494;2023-02-15T04:14:25;97620.25;;;-0.12;100.00
33185;BME280;19550;42.872;25.494;2023-02-15T04:17:10;97614.91;;;-0.25;100.00
33185;BME280;19550;42.872;25.494;2023-02-15T04:19:36;97617.44;;;-0.23;100.00
33185;BME280;19550;42.872;25.494;2023-02-15T04:22:22;97618.94;;;-0.27;100.00
33185;BME280;19550;42.872;25.494;2023-02-15T04:25:06;97625.88;;;-0.31;100.00
33185;BME280;19550;42.872;25.494;2023-02-15T04:27:37;97621.03;;;-0.29;100.00
33185;BME280;19550;42.872;25.494;2023-02-15T04:30:05;97624.19;;;-0.32;100.00
33185;BME280;19550;42.872;25.494;2023-02-15T04:32:32;97627.66;;;-0.19;100.00
33185;BME280;19550;42.872;25.494;2023-02-15T04:34:59;97626.31;;;-0.10;100.00
33185;BME280;19550;42.872;25.494;2023-02-15T04:37:28;97626.81;;;-0.19;100.00
33185;BME280;19550;42.872;25.494;2023-02-15T04:39:55;97631.56;;;-0.08;100.00
33185;BME280;19550;42.872;25.494;2023-02-15T04:42:24;97639.47;;;-0.07;100.00
33185;BME280;19550;42.872;25.494;2023-02-15T04:44:51;97633.81;;;-0.05;100.00
33185;BME280;19550;42.872;25.494;2023-02-15T04:47:17;97627.31;;;-0.04;100.00
33185;BME280;19550;42.872;25.494;2023-02-15T04:49:44;97639.06;;;-0.04;100.00
33185;BME280;19550;42.872;25.494;2023-02-15T04:52:11;97630.66;;;-0.02;100.00
33185;BME280;19550;42.872;25.494;2023-02-15T04:54:40;97636.44;;;0.08;100.00
33185;BME280;19550;42.872;25.494;2023-02-15T04:57:06;97644.94;;;0.18;100.00
33185;BME280;19550;42.872;25.494;2023-02-15T04:59:33;97635.47;;;0.21;100.00
33185;BME280;19550;42.872;25.494;2023-02-15T05:02:00;97644.09;;;0.18;100.00
33185;BME280;19550;42.872;25.494;2023-02-15T05:04:27;97632.44;;;0.11;100.00
33185;BME280;19550;42.872;25.494;2023-02-15T05:06:54;97652.84;;;0.26;100.00
33185;BME280;19550;42.872;25.494;2023-02-15T05:09:21;97644.16;;;0.11;100.00
33185;BME280;19550;42.872;25.494;2023-02-15T05:11:49;97640.06;;;0.20;100.00
33185;BME280;19550;42.872;25.494;2023-02-15T05:14:16;97650.31;;;0.25;100.00
33185;BME280;19550;42.872;25.494;2023-02-15T05:16:43;97660.94;;;0.33;100.00
33185;BME280;19550;42.872;25.494;2023-02-15T05:19:10;97660.88;;;0.39;100.00
33185;BME280;19550;42.872;25.494;2023-02-15T05:21:36;97667.06;;;0.47;100.00
33185;BME280;19550;42.872;25.494;2023-02-15T05:24:04;97665.13;;;0.54;100.00
33185;BME280;19550;42.872;25.494;2023-02-15T05:26:52;97673.16;;;0.49;100.00
33185;BME280;19550;42.872;25.494;2023-02-15T05:29:36;97680.28;;;0.50;100.00
33185;BME280;19550;42.872;25.494;2023-02-15T05:32:03;97689.22;;;0.57;100.00
33185;BME280;19550;42.872;25.494;2023-02-15T05:34:30;97688.03;;;0.53;100.00
33185;BME280;19550;42.872;25.494;2023-02-15T05:36:57;97694.84;;;0.62;100.00
33185;BME280;19550;42.872;25.494;2023-02-15T05:39:24;97692.56;;;0.59;100.00
33185;BME280;19550;42.872;25.494;2023-02-15T05:41:52;97706.38;;;0.64;100.00
33185;BME280;19550;42.872;25.494;2023-02-15T05:44:19;97691.66;;;0.65;100.00
33185;BME280;19550;42.872;25.494;2023-02-15T05:46:46;97703.16;;;0.67;100.00
33185;BME280;19550;42.872;25.494;2023-02-15T05:49:13;97699.25;;;0.63;100.00
33185;BME280;19550;42.872;25.494;2023-02-15T05:51:40;97714.09;;;0.67;100.00
33185;BME280;19550;42.872;25.494;2023-02-15T05:54:06;97711.84;;;0.82;100.00
33185;BME280;19550;42.872;25.494;2023-02-15T05:56:33;97716.09;;;0.96;100.00
33185;BME280;19550;42.872;25.494;2023-02-15T05:59:02;97716.38;;;0.88;100.00
33185;BME280;19550;42.872;25.494;2023-02-15T06:01:28;97714.34;;;1.02;100.00
33185;BME280;19550;42.872;25.494;2023-02-15T06:03:55;97716.44;;;1.00;100.00
33185;BME280;19550;42.872;25.494;2023-02-15T06:06:22;97715.09;;;1.09;100.00
33185;BME280;19550;42.872;25.494;2023-02-15T06:08:49;97715.94;;;1.09;100.00
33185;BME280;19550;42.872;25.494;2023-02-15T06:11:16;97714.41;;;1.13;100.00
33185;BME280;19550;42.872;25.494;2023-02-15T06:13:43;97719.47;;;1.28;100.00
33185;BME280;19550;42.872;25.494;2023-02-15T06:16:11;97730.94;;;1.37;100.00
33185;BME280;19550;42.872;25.494;2023-02-15T06:18:38;97732.34;;;1.57;100.00
33185;BME280;19550;42.872;25.494;2023-02-15T06:21:05;97731.47;;;1.75;100.00
33185;BME280;19550;42.872;25.494;2023-02-15T06:23:32;97736.47;;;1.78;100.00
33185;BME280;19550;42.872;25.494;2023-02-15T06:25:59;97736.00;;;1.81;100.00
33185;BME280;19550;42.872;25.494;2023-02-15T06:28:25;97735.22;;;1.92;100.00
33185;BME280;19550;42.872;25.494;2023-02-15T06:30:52;97735.34;;;1.97;100.00
33185;BME280;19550;42.872;25.494;2023-02-15T06:33:21;97721.97;;;2.19;100.00
33185;BME280;19550;42.872;25.494;2023-02-15T06:35:48;97724.34;;;2.27;100.00
33185;BME280;19550;42.872;25.494;2023-02-15T06:38:15;97739.97;;;2.38;100.00
33185;BME280;19550;42.872;25.494;2023-02-15T06:40:42;97732.47;;;2.46;100.00
33185;BME280;19550;42.872;25.494;2023-02-15T06:43:09;97728.66;;;2.47;100.00
33185;BME280;19550;42.872;25.494;2023-02-15T06:45:36;97730.69;;;2.51;100.00
33185;BME280;19550;42.872;25.494;2023-02-15T06:48:03;97725.44;;;2.61;100.00
33185;BME280;19550;42.872;25.494;2023-02-15T06:50:33;97729.97;;;2.67;100.00
33185;BME280;19550;42.872;25.494;2023-02-15T06:53:00;97733.53;;;2.68;100.00
33185;BME280;19550;42.872;25.494;2023-02-15T06:55:27;97731.19;;;2.71;100.00
33185;BME280;19550;42.872;25.494;2023-02-15T06:57:54;97722.97;;;2.71;100.00
33185;BME280;19550;42.872;25.494;2023-02-15T07:00:21;97724.75;;;2.77;100.00
33185;BME280;19550;42.872;25.494;2023-02-15T07:02:53;97715.69;;;2.89;100.00
33185;BME280;19550;42.872;25.494;2023-02-15T07:05:21;97725.69;;;2.95;100.00
33185;BME280;19550;42.872;25.494;2023-02-15T07:07:49;97721.75;;;3.02;100.00
33185;BME280;19550;42.872;25.494;2023-02-15T07:10:16;97724.59;;;3.07;100.00
33185;BME280;19550;42.872;25.494;2023-02-15T07:12:43;97722.22;;;3.11;100.00
33185;BME280;19550;42.872;25.494;2023-02-15T07:15:10;97718.50;;;3.17;100.00
33185;BME280;19550;42.872;25.494;2023-02-15T07:17:38;97720.53;;;3.22;100.00
33185;BME280;19550;42.872;25.494;2023-02-15T07:20:06;97727.66;;;3.23;100.00
33185;BME280;19550;42.872;25.494;2023-02-15T07:22:34;97723.63;;;3.25;100.00
33185;BME280;19550;42.872;25.494;2023-02-15T07:25:03;97719.50;;;3.39;100.00
33185;BME280;19550;42.872;25.494;2023-02-15T07:27:31;97720.47;;;3.45;100.00
33185;BME280;19550;42.872;25.494;2023-02-15T07:29:58;97711.28;;;3.39;99.29
33185;BME280;19550;42.872;25.494;2023-02-15T07:32:27;97713.09;;;3.45;100.00
33185;BME280;19550;42.872;25.494;2023-02-15T07:34:54;97718.06;;;3.48;99.40
33185;BME280;19550;42.872;25.494;2023-02-15T07:37:21;97717.19;;;3.59;98.49
33185;BME280;19550;42.872;25.494;2023-02-15T07:39:48;97715.78;;;3.57;98.57
33185;BME280;19550;42.872;25.494;2023-02-15T07:42:16;97721.50;;;3.55;98.35
33185;BME280;19550;42.872;25.494;2023-02-15T07:44:45;97715.72;;;3.69;99.79
33185;BME280;19550;42.872;25.494;2023-02-15T07:47:12;97718.28;;;3.87;99.34
33185;BME280;19550;42.872;25.494;2023-02-15T07:49:39;97717.66;;;3.96;97.43
33185;BME280;19550;42.872;25.494;2023-02-15T07:52:06;97712.47;;;3.83;96.63
33185;BME280;19550;42.872;25.494;2023-02-15T07:54:32;97730.16;;;3.92;96.78
33185;BME280;19550;42.872;25.494;2023-02-15T07:57:00;97720.84;;;4.22;95.70
33185;BME280;19550;42.872;25.494;2023-02-15T07:59:28;97717.97;;;4.45;94.97
33185;BME280;19550;42.872;25.494;2023-02-15T08:01:55;97718.44;;;4.59;94.64
33185;BME280;19550;42.872;25.494;2023-02-15T08:04:23;97717.84;;;4.73;92.71
33185;BME280;19550;42.872;25.494;2023-02-15T08:06:52;97707.81;;;5.01;92.75
33185;BME280;19550;42.872;25.494;2023-02-15T08:09:20;97714.63;;;5.15;91.04
33185;BME280;19550;42.872;25.494;2023-02-15T08:11:47;97713.94;;;5.25;89.54
33185;BME280;19550;42.872;25.494;2023-02-15T08:14:15;97715.88;;;5.07;90.53
33185;BME280;19550;42.872;25.494;2023-02-15T08:16:45;97716.84;;;4.79;91.42
33185;BME280;19550;42.872;25.494;2023-02-15T08:19:15;97712.84;;;4.87;91.37
33185;BME280;19550;42.872;25.494;2023-02-15T08:21:43;97723.69;;;4.77;92.07
33185;BME280;19550;42.872;25.494;2023-02-15T08:24:12;97724.34;;;4.84;91.38
33185;BME280;19550;42.872;25.494;2023-02-15T08:26:40;97722.25;;;4.91;90.90
33185;BME280;19550;42.872;25.494;2023-02-15T08:29:07;97721.41;;;4.91;90.75
33185;BME280;19550;42.872;25.494;2023-02-15T08:31:34;97721.91;;;5.04;90.95
33185;BME280;19550;42.872;25.494;2023-02-15T08:34:04;97715.44;;;5.15;89.78
33185;BME280;19550;42.872;25.494;2023-02-15T08:36:32;97718.66;;;5.29;89.64
33185;BME280;19550;42.872;25.494;2023-02-15T08:39:00;97721.28;;;5.41;89.58
33185;BME280;19550;42.872;25.494;2023-02-15T08:41:28;97722.06;;;5.58;88.87
33185;BME280;19550;42.872;25.494;2023-02-15T08:43:57;97726.34;;;5.49;88.06
33185;BME280;19550;42.872;25.494;2023-02-15T08:46:26;97715.34;;;5.71;87.85
33185;BME280;19550;42.872;25.494;2023-02-15T08:48:53;97719.22;;;5.53;87.56
33185;BME280;19550;42.872;25.494;2023-02-15T08:51:23;97731.25;;;5.47;88.04
33185;BME280;19550;42.872;25.494;2023-02-15T08:53:51;97727.22;;;5.54;88.70
33185;BME280;19550;42.872;25.494;2023-02-15T08:56:21;97728.06;;;5.33;88.27
33185;BME280;19550;42.872;25.494;2023-02-15T08:58:48;97718.72;;;5.34;89.43
33185;BME280;19550;42.872;25.494;2023-02-15T09:01:16;97729.91;;;5.28;88.78
33185;BME280;19550;42.872;25.494;2023-02-15T09:03:46;97733.63;;;5.38;88.30
33185;BME280;19550;42.872;25.494;2023-02-15T09:06:13;97735.16;;;5.29;88.82
33185;BME280;19550;42.872;25.494;2023-02-15T09:08:42;97735.81;;;5.36;89.25
33185;BME280;19550;42.872;25.494;2023-02-15T09:11:11;97734.22;;;5.62;88.22
33185;BME280;19550;42.872;25.494;2023-02-15T09:13:39;97729.72;;;5.56;88.12
33185;BME280;19550;42.872;25.494;2023-02-15T09:16:08;97729.47;;;5.57;88.94
33185;BME280;19550;42.872;25.494;2023-02-15T09:18:37;97727.47;;;5.53;88.25
33185;BME280;19550;42.872;25.494;2023-02-15T09:21:09;97722.75;;;5.70;87.85
33185;BME280;19550;42.872;25.494;2023-02-15T09:23:39;97730.53;;;6.00;85.88
33185;BME280;19550;42.872;25.494;2023-02-15T09:26:09;97716.31;;;6.08;85.38
33185;BME280;19550;42.872;25.494;2023-02-15T09:28:36;97725.59;;;6.24;84.25
33185;BME280;19550;42.872;25.494;2023-02-15T09:31:11;97723.31;;;6.48;84.25
33185;BME280;19550;42.872;25.494;2023-02-15T09:33:39;97717.00;;;6.52;81.76
33185;BME280;19550;42.872;25.494;2023-02-15T09:36:14;97715.41;;;6.24;82.75
33185;BME280;19550;42.872;25.494;2023-02-15T09:38:42;97722.25;;;6.22;83.23
33185;BME280;19550;42.872;25.494;2023-02-15T09:41:23;97708.16;;;6.18;83.36
33185;BME280;19550;42.872;25.494;2023-02-15T09:43:57;97715.19;;;6.31;83.33
33185;BME280;19550;42.872;25.494;2023-02-15T09:46:42;97718.66;;;6.53;83.02
33185;BME280;19550;42.872;25.494;2023-02-15T09:49:20;97710.50;;;6.63;83.18
33185;BME280;19550;42.872;25.494;2023-02-15T09:52:02;97719.81;;;6.57;83.41
33185;BME280;19550;42.872;25.494;2023-02-15T09:54:46;97720.69;;;6.63;82.83
33185;BME280;19550;42.872;25.494;2023-02-15T09:57:24;97707.13;;;6.93;81.82
33185;BME280;19550;42.872;25.494;2023-02-15T10:00:00;97701.00;;;7.28;80.54
33185;BME280;19550;42.872;25.494;2023-02-15T10:02:42;97692.28;;;7.46;79.75
33185;BME280;19550;42.872;25.494;2023-02-15T10:05:23;97698.88;;;7.45;79.37
33185;BME280;19550;42.872;25.494;2023-02-15T10:08:09;97693.44;;;7.66;78.34
33185;BME280;19550;42.872;25.494;2023-02-15T10:10:47;97688.50;;;7.63;77.96
33185;BME280;19550;42.872;25.494;2023-02-15T10:13:29;97683.63;;;7.95;77.94
33185;BME280;19550;42.872;25.494;2023-02-15T10:16:10;97679.78;;;8.11;75.44
33185;BME280;19550;42.872;25.494;2023-02-15T10:18:52;97675.59;;;7.98;75.31
33185;BME280;19550;42.872;25.494;2023-02-15T10:21:33;97673.63;;;7.74;75.94
33185;BME280;19550;42.872;25.494;2023-02-15T10:27:11;97674.41;;;7.02;79.14
33185;BME280;19550;42.872;25.494;2023-02-15T10:29:43;97666.28;;;7.32;78.02
33185;BME280;19550;42.872;25.494;2023-02-15T10:32:20;97664.81;;;7.92;78.01
33185;BME280;19550;42.872;25.494;2023-02-15T10:34:51;97656.56;;;7.97;75.54
33185;BME280;19550;42.872;25.494;2023-02-15T10:40:25;97643.94;;;8.42;74.60
33185;BME280;19550;42.872;25.494;2023-02-15T10:43:06;97657.72;;;8.16;73.60
33185;BME280;19550;42.872;25.494;2023-02-15T10:45:43;97653.03;;;8.32;74.30
33185;BME280;19550;42.872;25.494;2023-02-15T10:48:26;97658.31;;;8.44;73.61
33185;BME280;19550;42.872;25.494;2023-02-15T10:51:00;97655.25;;;8.81;73.95
33185;BME280;19550;42.872;25.494;2023-02-15T10:53:48;97655.28;;;8.55;71.95
33185;BME280;19550;42.872;25.494;2023-02-15T10:56:20;97651.66;;;8.65;72.83
33185;BME280;19550;42.872;25.494;2023-02-15T10:59:09;97638.16;;;8.43;73.21
33185;BME280;19550;42.872;25.494;2023-02-15T11:01:43;97650.59;;;8.51;73.59
33185;BME280;19550;42.872;25.494;2023-02-15T11:04:51;97651.63;;;8.85;73.30
33185;BME280;19550;42.872;25.494;2023-02-15T11:07:23;97666.59;;;8.84;72.82
33185;BME280;19550;42.872;25.494;2023-02-15T11:09:56;97652.78;;;8.54;72.65
33185;BME280;19550;42.872;25.494;2023-02-15T11:12:27;97658.56;;;8.67;73.08
33185;BME280;19550;42.872;25.494;2023-02-15T11:14:58;97656.63;;;8.73;72.37
33185;BME280;19550;42.872;25.494;2023-02-15T11:17:34;97651.09;;;8.88;72.10
33185;BME280;19550;42.872;25.494;2023-02-15T11:20:08;97643.63;;;8.28;71.68
33185;BME280;19550;42.872;25.494;2023-02-15T11:22:37;97649.97;;;8.08;72.67
33185;BME280;19550;42.872;25.494;2023-02-15T11:25:15;97649.34;;;7.86;74.27
33185;BME280;19550;42.872;25.494;2023-02-15T11:27:44;97646.03;;;7.79;74.41
33185;BME280;19550;42.872;25.494;2023-02-15T11:30:15;97646.00;;;7.69;75.90
33185;BME280;19550;42.872;25.494;2023-02-15T11:32:45;97641.84;;;7.61;75.66
33185;BME280;19550;42.872;25.494;2023-02-15T11:35:20;97634.38;;;7.56;74.84
33185;BME280;19550;42.872;25.494;2023-02-15T11:37:53;97637.94;;;7.47;74.98
33185;BME280;19550;42.872;25.494;2023-02-15T11:40:25;97644.03;;;7.54;75.01
33185;BME280;19550;42.872;25.494;2023-02-15T11:42:55;97646.91;;;8.05;73.53
33185;BME280;19550;42.872;25.494;2023-02-15T11:45:26;97628.69;;;8.14;74.04
33185;BME280;19550;42.872;25.494;2023-02-15T11:47:56;97623.97;;;7.89;74.66
33185;BME280;19550;42.872;25.494;2023-02-15T11:50:24;97628.41;;;8.00;73.03
33185;BME280;19550;42.872;25.494;2023-02-15T11:52:56;97624.84;;;8.30;70.95
33185;BME280;19550;42.872;25.494;2023-02-15T11:55:25;97624.88;;;8.55;71.33
33185;BME280;19550;42.872;25.494;2023-02-15T11:57:57;97628.44;;;8.71;70.18
33185;BME280;19550;42.872;25.494;2023-02-15T12:00:32;97621.00;;;8.61;68.29
33185;BME280;19550;42.872;25.494;2023-02-15T12:03:10;97622.94;;;8.56;67.48
33185;BME280;19550;42.872;25.494;2023-02-15T12:05:41;97614.38;;;8.62;67.10
33185;BME280;19550;42.872;25.494;2023-02-15T12:08:14;97603.03;;;8.69;69.13
33185;BME280;19550;42.872;25.494;2023-02-15T12:10:55;97611.81;;;8.91;70.17
33185;BME280;19550;42.872;25.494;2023-02-15T12:13:23;97614.28;;;8.93;68.34
33185;BME280;19550;42.872;25.494;2023-02-15T12:15:53;97614.59;;;8.86;68.60
33185;BME280;19550;42.872;25.494;2023-02-15T12:18:32;97614.22;;;9.13;69.70
33185;BME280;19550;42.872;25.494;2023-02-15T12:21:02;97609.47;;;9.34;68.56
33185;BME280;19550;42.872;25.494;2023-02-15T12:23:32;97611.16;;;9.30;69.64
33185;BME280;19550;42.872;25.494;2023-02-15T12:25:59;97610.56;;;9.33;68.64
33185;BME280;19550;42.872;25.494;2023-02-15T12:28:31;97609.28;;;9.10;68.49
33185;BME280;19550;42.872;25.494;2023-02-15T12:31:00;97608.16;;;9.11;69.04
33185;BME280;19550;42.872;25.494;2023-02-15T12:33:33;97609.88;;;8.87;69.36
33185;BME280;19550;42.872;25.494;2023-02-15T12:36:04;97607.97;;;8.77;67.75
33185;BME280;19550;42.872;25.494;2023-02-15T12:38:36;97603.00;;;8.74;69.22
33185;BME280;19550;42.872;25.494;2023-02-15T12:41:10;97607.69;;;8.13;68.11
33185;BME280;19550;42.872;25.494;2023-02-15T12:44:03;97607.72;;;8.03;70.22
33185;BME280;19550;42.872;25.494;2023-02-15T12:46:31;97601.31;;;7.92;70.11
33185;BME280;19550;42.872;25.494;2023-02-15T12:49:11;97592.47;;;7.85;72.20
33185;BME280;19550;42.872;25.494;2023-02-15T12:51:45;97600.22;;;7.88;73.50
33185;BME280;19550;42.872;25.494;2023-02-15T12:54:32;97595.84;;;7.97;72.40
33185;BME280;19550;42.872;25.494;2023-02-15T12:57:15;97604.38;;;8.01;71.44
33185;BME280;19550;42.872;25.494;2023-02-15T12:59:53;97591.41;;;8.01;72.01
33185;BME280;19550;42.872;25.494;2023-02-15T13:02:24;97599.09;;;7.79;71.69
33185;BME280;19550;42.872;25.494;2023-02-15T13:04:54;97593.00;;;7.67;72.04
33185;BME280;19550;42.872;25.494;2023-02-15T13:07:25;97591.28;;;7.35;73.54
33185;BME280;19550;42.872;25.494;2023-02-15T13:09:56;97588.78;;;7.39;74.43
33185;BME280;19550;42.872;25.494;2023-02-15T13:12:25;97586.03;;;7.34;75.92
33185;BME280;19550;42.872;25.494;2023-02-15T13:14:54;97571.13;;;7.35;74.32
33185;BME280;19550;42.872;25.494;2023-02-15T13:17:25;97587.69;;;7.35;74.26
33185;BME280;19550;42.872;25.494;2023-02-15T13:19:58;97581.59;;;7.23;73.18
33185;BME280;19550;42.872;25.494;2023-02-15T13:22:33;97576.84;;;7.18;74.36
33185;BME280;19550;42.872;25.494;2023-02-15T13:25:04;97573.25;;;7.12;72.88